createdAt,value
2023-03-17T00:01:54.731Z,50.02
2023-03-17T00:04:56.587Z,49.77
2023-03-17T00:08:04.108Z,51.78
2023-03-17T00:11:06.333Z,51.31
2023-03-17T00:14:08.424Z,51.48
2023-03-17T00:17:14.023Z,51.87
2023-03-17T00:20:28.765Z,51.97
2023-03-17T00:23:30.532Z,52.05
2023-03-17T00:26:32.107Z,51.22
2023-03-17T00:29:33.621Z,51.01
2023-03-17T00:32:35.386Z,51.46
2023-03-17T00:35:38.325Z,50.11
2023-03-17T00:38:42.834Z,50.40
2023-03-17T00:41:44.582Z,50.48
2023-03-17T00:44:46.994Z,50.00
2023-03-17T00:47:50.173Z,50.34
2023-03-17T00:50:51.721Z,50.51
2023-03-17T00:53:53.393Z,50.51
2023-03-17T00:56:54.920Z,50.74
2023-03-17T00:59:56.857Z,50.49
2023-03-17T01:02:58.378Z,50.71
2023-03-17T01:06:04.527Z,50.54
2023-03-17T01:09:06.158Z,49.74
2023-03-17T01:12:12.523Z,50.01
2023-03-17T01:15:14.891Z,49.80
2023-03-17T01:18:18.082Z,49.99
2023-03-17T01:21:20.467Z,50.34
2023-03-17T01:24:22.038Z,50.67
2023-03-17T01:27:24.412Z,50.59
2023-03-17T01:30:28.590Z,50.56
2023-03-17T01:33:30.744Z,50.76
2023-03-17T01:36:32.268Z,50.49
2023-03-17T01:39:34.348Z,50.53
2023-03-17T01:42:36.276Z,50.39
2023-03-17T01:46:15.227Z,51.19
2023-03-17T01:49:29.974Z,51.24
2023-03-17T01:52:34.429Z,51.38
2023-03-17T01:55:36.764Z,51.81
2023-03-17T01:58:39.570Z,51.49
2023-03-17T02:01:44.557Z,51.78
2023-03-17T02:04:46.116Z,51.93
2023-03-17T02:07:48.367Z,51.47
2023-03-17T02:10:50.614Z,51.41
2023-03-17T02:13:53.339Z,51.60
2023-03-17T02:16:56.273Z,51.81
2023-03-17T02:20:13.811Z,52.07
2023-03-17T02:23:19.026Z,51.81
2023-03-17T02:26:24.593Z,52.11
2023-03-17T02:29:26.114Z,51.84
2023-03-17T02:32:27.748Z,52.15
2023-03-17T02:35:31.505Z,51.96
2023-03-17T02:38:33.073Z,52.22
2023-03-17T02:41:36.334Z,52.32
2023-03-17T02:44:38.326Z,52.15
2023-03-17T02:47:40.075Z,52.50
2023-03-17T02:50:41.595Z,52.16
2023-03-17T02:53:43.218Z,52.54
2023-03-17T02:56:44.827Z,52.96
2023-03-17T02:59:46.502Z,52.92
2023-03-17T03:02:48.056Z,53.25
2023-03-17T03:05:49.613Z,52.96
2023-03-17T03:08:52.319Z,53.62
2023-03-17T03:11:53.889Z,53.54
2023-03-17T03:14:55.339Z,53.35
2023-03-17T03:17:56.766Z,53.98
2023-03-17T03:20:58.521Z,53.54
2023-03-17T03:24:00.027Z,53.64
2023-03-17T03:27:01.586Z,54.34
2023-03-17T03:30:04.197Z,54.19
2023-03-17T03:33:06.559Z,53.48
2023-03-17T03:36:08.817Z,53.40
2023-03-17T03:39:12.457Z,53.41
2023-03-17T03:42:16.415Z,53.16
2023-03-17T03:45:18.016Z,52.85
2023-03-17T03:48:19.532Z,53.29
2023-03-17T03:51:21.039Z,53.43
2023-03-17T03:54:22.560Z,53.30
2023-03-17T03:57:24.094Z,53.01
2023-03-17T04:00:26.097Z,52.76
2023-03-17T04:03:27.913Z,53.16
2023-03-17T04:06:29.420Z,53.25
2023-03-17T04:09:30.890Z,53.68
2023-03-17T04:12:32.380Z,53.25
2023-03-17T04:15:33.932Z,53.45
2023-03-17T04:18:35.724Z,53.67
2023-03-17T04:21:37.446Z,53.09
2023-03-17T04:24:39.384Z,53.60
2023-03-17T04:27:42.348Z,53.47
2023-03-17T04:30:43.800Z,53.56
2023-03-17T04:33:45.318Z,53.50
2023-03-17T04:36:47.872Z,53.83
2023-03-17T04:39:49.339Z,53.63
2023-03-17T04:42:51.088Z,52.91
2023-03-17T04:45:52.728Z,53.22
2023-03-17T04:48:54.294Z,53.82
2023-03-17T04:51:55.806Z,53.54
2023-03-17T04:54:57.594Z,53.32
2023-03-17T04:57:59.092Z,53.30
2023-03-17T05:01:02.460Z,53.25
2023-03-17T05:04:04.306Z,52.94
2023-03-17T05:07:05.905Z,53.08
2023-03-17T05:10:08.007Z,53.31
2023-03-17T05:13:09.480Z,53.61
2023-03-17T05:16:11.651Z,53.47
2023-03-17T05:19:13.168Z,53.61
2023-03-17T05:22:14.602Z,54.18
2023-03-17T05:25:16.907Z,53.41
2023-03-17T05:28:20.795Z,54.42
2023-03-17T05:31:22.813Z,53.95
2023-03-17T05:34:24.541Z,54.08
2023-03-17T05:37:26.074Z,53.90
2023-03-17T05:40:27.593Z,53.75
2023-03-17T05:43:29.192Z,53.97
2023-03-17T05:46:30.679Z,53.51
2023-03-17T05:49:32.258Z,53.63
2023-03-17T05:52:33.715Z,53.56
2023-03-17T05:55:35.305Z,53.46
2023-03-17T05:58:36.818Z,53.75
2023-03-17T06:01:38.277Z,53.58
2023-03-17T06:04:40.009Z,53.18
2023-03-17T06:07:52.310Z,53.83
2023-03-17T06:10:54.830Z,52.94
2023-03-17T06:13:56.427Z,52.79
2023-03-17T06:16:58.024Z,52.95
2023-03-17T06:19:59.480Z,52.79
2023-03-17T06:23:05.032Z,52.47
2023-03-17T06:26:07.256Z,52.11
2023-03-17T06:29:10.222Z,52.52
2023-03-17T06:32:20.277Z,52.13
2023-03-17T06:35:23.354Z,51.99
2023-03-17T06:38:25.437Z,52.14
2023-03-17T06:41:27.516Z,52.10
2023-03-17T06:44:29.267Z,52.56
2023-03-17T06:47:30.796Z,52.77
2023-03-17T06:50:32.486Z,52.40
2023-03-17T06:53:34.060Z,52.43
2023-03-17T06:56:35.943Z,52.25
2023-03-17T06:59:37.840Z,52.50
2023-03-17T07:02:39.457Z,52.05
2023-03-17T07:05:41.097Z,51.69
2023-03-17T07:08:42.649Z,51.36
2023-03-17T07:11:44.097Z,51.66
2023-03-17T07:14:46.160Z,51.35
2023-03-17T07:17:47.946Z,51.28
2023-03-17T07:20:49.380Z,50.99
2023-03-17T07:23:51.151Z,51.20
2023-03-17T07:26:52.874Z,50.98
2023-03-17T07:29:54.432Z,51.35
2023-03-17T07:32:57.522Z,51.10
2023-03-17T07:35:59.223Z,51.40
2023-03-17T07:39:05.837Z,51.55
2023-03-17T07:42:07.413Z,51.60
2023-03-17T07:45:09.996Z,51.58
2023-03-17T07:48:13.091Z,51.47
2023-03-17T07:51:17.011Z,51.50
2023-03-17T07:54:18.866Z,50.77
2023-03-17T07:57:20.833Z,50.53
2023-03-17T08:00:23.565Z,50.40
2023-03-17T08:03:25.303Z,50.94
2023-03-17T08:06:27.299Z,51.47
2023-03-17T08:09:28.800Z,51.48
2023-03-17T08:12:30.266Z,51.54
2023-03-17T08:15:31.866Z,50.50
2023-03-17T08:18:34.105Z,49.71
2023-03-17T08:21:36.036Z,49.05
2023-03-17T08:24:38.360Z,48.25
2023-03-17T08:27:39.886Z,46.92
2023-03-17T08:30:42.694Z,45.61
2023-03-17T08:33:48.116Z,44.41
2023-03-17T08:36:50.638Z,43.33
2023-03-17T08:39:52.393Z,42.84
2023-03-17T08:42:53.947Z,42.14
2023-03-17T08:46:24.294Z,42.46
2023-03-17T08:49:28.540Z,39.23
2023-03-17T08:52:30.683Z,38.56
2023-03-17T08:55:32.204Z,38.50
2023-03-17T08:58:35.694Z,38.65
2023-03-17T09:01:37.653Z,39.04
2023-03-17T09:04:40.242Z,39.58
2023-03-17T09:07:43.606Z,39.33
2023-03-17T09:10:47.344Z,39.49
2023-03-17T09:13:49.336Z,39.60
2023-03-17T09:16:50.910Z,39.63
2023-03-17T09:19:52.361Z,39.25
2023-03-17T09:22:54.324Z,38.90
2023-03-17T09:25:55.923Z,39.38
2023-03-17T09:28:57.830Z,38.49
2023-03-17T09:32:00.017Z,37.23
2023-03-17T09:35:01.915Z,36.84
2023-03-17T09:38:03.680Z,36.96
2023-03-17T09:41:46.646Z,37.32
2023-03-17T09:45:01.928Z,37.84
2023-03-17T09:48:12.026Z,39.35
2023-03-17T09:51:18.457Z,40.59
2023-03-17T09:54:31.335Z,40.61
2023-03-17T09:57:36.265Z,37.12
2023-03-17T10:00:37.871Z,36.62
2023-03-17T10:03:39.955Z,36.58
2023-03-17T10:06:46.798Z,36.45
2023-03-17T10:10:03.040Z,36.33
2023-03-17T10:13:16.646Z,36.41
2023-03-17T10:16:21.909Z,36.01
2023-03-17T10:19:30.485Z,35.45
2023-03-17T10:22:43.290Z,35.73
2023-03-17T10:25:44.970Z,35.41
2023-03-17T10:28:46.730Z,34.37
2023-03-17T10:31:49.522Z,33.99
2023-03-17T10:34:51.047Z,33.23
2023-03-17T10:38:04.422Z,33.91
2023-03-17T10:41:16.667Z,34.02
2023-03-17T10:44:26.566Z,34.62
2023-03-17T10:47:46.809Z,35.20
2023-03-17T10:50:49.544Z,35.49
2023-03-17T10:53:52.912Z,35.68
2023-03-17T10:57:08.101Z,35.76
2023-03-17T11:00:20.838Z,35.21
2023-03-17T11:03:35.347Z,35.04
2023-03-17T11:06:44.136Z,34.46
2023-03-17T11:09:56.830Z,34.52
2023-03-17T11:13:02.107Z,34.60
2023-03-17T11:16:23.371Z,33.84
2023-03-17T11:19:53.965Z,33.92
2023-03-17T11:23:04.803Z,32.99
2023-03-17T11:26:14.727Z,32.88
2023-03-17T11:29:35.756Z,33.19
2023-03-17T11:32:59.025Z,32.68
2023-03-17T11:36:29.603Z,32.31
2023-03-17T11:40:19.037Z,30.70
2023-03-17T11:43:34.910Z,31.33
2023-03-17T11:46:46.597Z,30.96
2023-03-17T11:50:02.040Z,30.82
2023-03-17T11:53:32.039Z,30.34
2023-03-17T11:56:41.935Z,30.71
2023-03-17T12:00:02.048Z,29.96
2023-03-17T12:03:23.199Z,29.47
2023-03-17T12:06:30.463Z,29.49
2023-03-17T12:09:46.223Z,29.67
2023-03-17T12:12:56.545Z,29.69
2023-03-17T12:16:08.722Z,29.78
2023-03-17T12:19:16.525Z,29.65
2023-03-17T12:22:30.554Z,29.08
2023-03-17T12:25:40.469Z,28.83
2023-03-17T12:29:06.782Z,28.30
2023-03-17T12:32:18.294Z,27.86
2023-03-17T12:35:33.202Z,28.00
2023-03-17T12:38:41.022Z,27.64
2023-03-17T12:42:01.661Z,28.16
2023-03-17T12:45:22.362Z,29.10
2023-03-17T12:48:42.637Z,29.17
2023-03-17T12:52:06.716Z,29.30
2023-03-17T12:55:17.754Z,29.33
2023-03-17T12:58:44.076Z,29.26
2023-03-17T13:01:55.544Z,29.60
2023-03-17T13:05:02.637Z,29.39
2023-03-17T13:08:08.352Z,29.41
2023-03-17T13:11:27.253Z,29.21
2023-03-17T13:14:42.497Z,29.14
2023-03-17T13:17:44.041Z,28.83
2023-03-17T13:20:51.976Z,28.43
2023-03-17T13:23:58.131Z,28.58
2023-03-17T13:27:01.968Z,28.25
2023-03-17T13:30:26.939Z,28.68
2023-03-17T13:33:32.570Z,28.82
2023-03-17T13:36:54.613Z,28.99
2023-03-17T13:40:19.098Z,28.19
2023-03-17T13:43:45.362Z,28.33
2023-03-17T13:46:48.246Z,27.85
2023-03-17T13:49:52.840Z,28.19
2023-03-17T13:53:08.578Z,27.96
2023-03-17T13:56:21.600Z,28.56
2023-03-17T13:59:32.878Z,28.22
2023-03-17T14:02:39.053Z,28.49
2023-03-17T14:05:42.184Z,27.97
2023-03-17T14:09:16.460Z,27.63
2023-03-17T14:12:24.704Z,27.99
2023-03-17T14:15:50.551Z,27.94
2023-03-17T14:18:58.988Z,27.84
2023-03-17T14:22:19.576Z,28.23
2023-03-17T14:25:28.550Z,28.32
2023-03-17T14:28:32.905Z,28.64
2023-03-17T14:31:34.656Z,28.91
2023-03-17T14:34:43.315Z,28.86
2023-03-17T14:37:45.461Z,28.81
2023-03-17T14:40:47.799Z,28.83
2023-03-17T14:43:52.179Z,29.10
2023-03-17T14:47:05.654Z,28.44
2023-03-17T14:50:22.052Z,28.21
2023-03-17T14:53:24.233Z,28.37
2023-03-17T14:56:50.642Z,27.90
2023-03-17T15:00:22.840Z,28.13
2023-03-17T15:03:27.928Z,28.06
2023-03-17T15:06:30.631Z,28.08
2023-03-17T15:09:36.778Z,28.20
2023-03-17T15:12:38.851Z,28.00
2023-03-17T15:15:41.607Z,27.90
2023-03-17T15:18:43.916Z,27.86
2023-03-17T15:21:45.592Z,27.76
2023-03-17T15:25:02.264Z,27.97
2023-03-17T15:28:14.815Z,27.84
2023-03-17T15:31:16.492Z,28.02
2023-03-17T15:34:18.014Z,28.18
2023-03-17T15:37:26.588Z,28.31
2023-03-17T15:40:28.105Z,28.73
2023-03-17T15:43:29.602Z,28.81
2023-03-17T15:46:32.192Z,29.37
2023-03-17T15:49:35.018Z,29.74
2023-03-17T15:52:36.533Z,30.13
2023-03-17T15:55:37.988Z,30.56
2023-03-17T15:58:39.480Z,30.78
2023-03-17T16:01:41.131Z,31.09
2023-03-17T16:04:42.670Z,31.38
2023-03-17T16:07:44.932Z,31.56
2023-03-17T16:10:46.968Z,31.58
2023-03-17T16:13:48.454Z,31.48
2023-03-17T16:16:50.053Z,31.38
2023-03-17T16:19:52.598Z,31.21
2023-03-17T16:23:00.853Z,31.28
2023-03-17T16:26:14.415Z,31.44
2023-03-17T16:29:22.149Z,31.61
2023-03-17T16:32:23.751Z,31.86
2023-03-17T16:35:25.749Z,31.75
2023-03-17T16:38:29.982Z,32.00
2023-03-17T16:41:34.764Z,32.15
2023-03-17T16:44:36.350Z,32.37
2023-03-17T16:47:37.840Z,32.67
2023-03-17T16:50:39.526Z,33.21
2023-03-17T16:53:41.092Z,33.82
2023-03-17T16:56:42.791Z,34.37
2023-03-17T16:59:44.332Z,34.56
2023-03-17T17:02:48.521Z,35.00
2023-03-17T17:05:51.370Z,35.22
2023-03-17T17:08:53.077Z,35.46
2023-03-17T17:11:54.547Z,36.22
2023-03-17T17:14:56.024Z,37.45
2023-03-17T17:18:01.072Z,38.73
2023-03-17T17:21:03.769Z,39.64
2023-03-17T17:24:05.518Z,40.03
2023-03-17T17:27:07.238Z,40.63
2023-03-17T17:30:11.587Z,40.72
2023-03-17T17:33:13.304Z,40.87
2023-03-17T17:36:16.607Z,41.03
2023-03-17T17:39:18.225Z,41.44
2023-03-17T17:42:20.564Z,41.81
2023-03-17T17:45:22.174Z,42.50
2023-03-17T17:48:26.525Z,42.79
2023-03-17T17:51:28.760Z,42.96
2023-03-17T17:54:30.323Z,43.11
2023-03-17T17:57:31.784Z,43.31
2023-03-17T18:00:33.547Z,43.56
2023-03-17T18:03:35.242Z,44.29
2023-03-17T18:06:36.834Z,43.91
2023-03-17T18:09:38.353Z,44.19
2023-03-17T18:12:39.859Z,44.63
2023-03-17T18:15:41.611Z,43.27
2023-03-17T18:18:45.553Z,42.92
2023-03-17T18:21:47.568Z,42.66
2023-03-17T18:24:49.890Z,42.52
2023-03-17T18:27:51.403Z,42.55
2023-03-17T18:30:54.102Z,43.01
2023-03-17T18:33:59.717Z,42.92
2023-03-17T18:37:02.052Z,43.09
2023-03-17T18:40:14.216Z,43.71
2023-03-17T18:43:18.992Z,43.98
2023-03-17T18:46:20.569Z,44.63
2023-03-17T18:49:25.147Z,45.13
2023-03-17T18:52:34.952Z,45.53
2023-03-17T18:55:36.789Z,45.08
2023-03-17T18:58:38.357Z,44.45
2023-03-17T19:01:43.072Z,44.56
2023-03-17T19:04:47.063Z,44.95
2023-03-17T19:07:48.621Z,45.02
2023-03-17T19:10:50.319Z,45.05
2023-03-17T19:13:52.467Z,45.25
2023-03-17T19:16:54.008Z,45.86
2023-03-17T19:19:55.832Z,46.35
2023-03-17T19:22:59.678Z,46.53
2023-03-17T19:26:02.007Z,46.49
2023-03-17T19:29:03.519Z,46.47
2023-03-17T19:32:06.419Z,46.34
2023-03-17T19:35:08.402Z,45.24
2023-03-17T19:38:11.448Z,46.42
2023-03-17T19:41:13.637Z,46.16
2023-03-17T19:44:15.193Z,46.25
2023-03-17T19:47:16.922Z,46.47
2023-03-17T19:50:18.823Z,48.95
2023-03-17T19:53:20.667Z,50.05
2023-03-17T19:56:23.036Z,49.25
2023-03-17T19:59:24.684Z,49.24
2023-03-17T20:02:26.226Z,49.17
2023-03-17T20:05:27.655Z,49.54
2023-03-17T20:08:29.170Z,49.34
2023-03-17T20:11:33.813Z,49.56
2023-03-17T20:14:35.896Z,49.18
2023-03-17T20:17:37.447Z,49.29
2023-03-17T20:20:39.214Z,49.21
2023-03-17T20:23:40.882Z,48.68
2023-03-17T20:26:45.537Z,48.73
2023-03-17T20:29:48.507Z,48.60
2023-03-17T20:32:51.092Z,48.40
2023-03-17T20:35:52.848Z,48.45
2023-03-17T20:38:54.624Z,48.42
2023-03-17T20:41:56.350Z,48.73
2023-03-17T20:44:58.012Z,49.16
2023-03-17T20:48:00.813Z,49.46
2023-03-17T20:51:06.306Z,49.54
2023-03-17T20:54:08.680Z,49.56
2023-03-17T20:57:14.049Z,49.26
2023-03-17T21:00:18.673Z,49.90
2023-03-17T21:03:20.813Z,49.54
2023-03-17T21:06:25.892Z,48.87
2023-03-17T21:09:28.307Z,47.12
2023-03-17T21:12:30.178Z,44.21
2023-03-17T21:15:31.766Z,41.45
2023-03-17T21:18:33.333Z,39.71
2023-03-17T21:21:34.809Z,36.86
2023-03-17T21:24:38.279Z,36.91
2023-03-17T21:27:40.847Z,35.59
2023-03-17T21:30:49.065Z,35.48
2023-03-17T21:33:50.823Z,36.16
2023-03-17T21:36:53.291Z,36.41
2023-03-17T21:39:55.028Z,36.67
2023-03-17T21:42:57.236Z,36.86
2023-03-17T21:45:58.756Z,37.03
2023-03-17T21:49:00.565Z,37.22
2023-03-17T21:52:02.274Z,37.24
2023-03-17T21:55:05.842Z,37.47
2023-03-17T21:58:08.158Z,36.89
2023-03-17T22:01:10.067Z,36.93
2023-03-17T22:04:12.631Z,37.09
2023-03-17T22:07:14.563Z,36.86
2023-03-17T22:10:16.583Z,37.13
2023-03-17T22:13:18.160Z,36.90
2023-03-17T22:16:19.784Z,37.10
2023-03-17T22:19:21.544Z,36.91
2023-03-17T22:22:23.956Z,36.67
2023-03-17T22:25:25.416Z,36.94
2023-03-17T22:28:26.955Z,37.19
2023-03-17T22:31:30.797Z,36.75
2023-03-17T22:34:32.515Z,37.09
2023-03-17T22:37:33.987Z,36.92
2023-03-17T22:40:35.964Z,36.87
2023-03-17T22:43:38.155Z,36.98
2023-03-17T22:46:43.331Z,37.28
2023-03-17T22:49:44.920Z,37.27
2023-03-17T22:52:46.953Z,37.77
2023-03-17T22:55:48.474Z,37.63
2023-03-17T22:58:50.639Z,37.80
2023-03-17T23:01:52.392Z,37.41
2023-03-17T23:04:54.168Z,37.54
2023-03-17T23:07:55.792Z,38.02
2023-03-17T23:10:59.459Z,38.22
2023-03-17T23:14:00.974Z,38.41
2023-03-17T23:17:03.163Z,38.34
2023-03-17T23:20:05.563Z,38.26
2023-03-17T23:23:08.349Z,38.25
2023-03-17T23:26:10.736Z,38.60
2023-03-17T23:29:12.579Z,38.83
2023-03-17T23:32:14.354Z,38.56
2023-03-17T23:35:17.414Z,38.54
2023-03-17T23:38:21.419Z,38.87
2023-03-17T23:41:22.994Z,39.05
2023-03-17T23:44:24.586Z,39.29
2023-03-17T23:47:27.072Z,40.00
2023-03-17T23:50:28.694Z,40.44
2023-03-17T23:53:30.271Z,40.47
2023-03-17T23:56:32.407Z,39.88
2023-03-17T23:59:34.767Z,39.79
